createdAt,value
2018-04-19T00:07:01.471Z,0
2018-04-19T00:17:16.904Z,0
2018-04-19T00:27:32.538Z,0
2018-04-19T00:37:47.159Z,0
2018-04-19T00:48:01.307Z,0
2018-04-19T00:58:15.491Z,0
2018-04-19T01:08:31.191Z,0
2018-04-19T01:18:45.266Z,0
2018-04-19T01:28:59.077Z,0
2018-04-19T01:39:13.839Z,0
2018-04-19T01:49:28.225Z,0
2018-04-19T01:59:42.087Z,0
2018-04-19T02:09:56.698Z,0
2018-04-19T02:20:10.663Z,0
2018-04-19T02:30:25.842Z,0
2018-04-19T02:40:40.269Z,0
2018-04-19T02:50:54.830Z,0
2018-04-19T03:01:09.145Z,0
2018-04-19T03:11:24.626Z,0
2018-04-19T03:21:39.358Z,0
2018-04-19T03:31:54.647Z,0
2018-04-19T03:42:09.448Z,0
2018-04-19T03:52:23.797Z,4
2018-04-19T04:02:37.624Z,20
2018-04-19T04:12:51.889Z,104
2018-04-19T04:23:06.751Z,348
2018-04-19T04:33:20.540Z,808
2018-04-19T04:43:34.519Z,1440
2018-04-19T04:53:48.620Z,2164
2018-04-19T05:04:03.128Z,2928
2018-04-19T05:14:17.576Z,3600
2018-04-19T05:24:32.971Z,4212
2018-04-19T05:34:46.919Z,4752
2018-04-19T05:45:02.527Z,5860
2018-04-19T05:55:18.293Z,6368
2018-04-19T06:05:33.532Z,7820
2018-04-19T06:15:48.784Z,7612
2018-04-19T06:26:03.641Z,11532
2018-04-19T06:36:19.041Z,8252
2018-04-19T06:46:34.115Z,8216
2018-04-19T06:56:49.312Z,12024
2018-04-19T07:07:03.478Z,19264
2018-04-19T07:17:18.365Z,21920
2018-04-19T07:27:32.793Z,35360
2018-04-19T07:37:47.088Z,40480
2018-04-19T07:48:02.611Z,43712
2018-04-19T07:58:16.577Z,41216
2018-04-19T08:08:31.237Z,42624
2018-04-19T08:18:46.811Z,43712
2018-04-19T08:29:02.537Z,50688
2018-04-19T08:39:18.437Z,53632
2018-04-19T08:49:33.732Z,58080
2018-04-19T08:59:49.067Z,59456
2018-04-19T09:10:03.872Z,59104
2018-04-19T09:20:19.370Z,60928
2018-04-19T09:30:33.305Z,58944
2018-04-19T09:51:03.757Z,64704
2018-04-19T10:01:18.512Z,66080
2018-04-19T10:11:33.195Z,71424
2018-04-19T10:21:47.662Z,75872
2018-04-19T10:32:02.419Z,74848
2018-04-19T10:42:17.141Z,82784
2018-04-19T10:52:33.049Z,82496
2018-04-19T11:02:48.238Z,89984
2018-04-19T11:13:02.493Z,78464
2018-04-19T11:23:17.887Z,82752
2018-04-19T11:33:32.371Z,79968
2018-04-19T11:43:46.593Z,77920
2018-04-19T11:54:02.393Z,79648
2018-04-19T12:04:18.078Z,86592
2018-04-19T12:14:32.529Z,95264
2018-04-19T12:24:47.486Z,87936
2018-04-19T12:35:01.672Z,62944
2018-04-19T12:45:17.105Z,73984
2018-04-19T12:55:32.748Z,87712
2018-04-19T13:05:48.493Z,87808
2018-04-19T13:16:02.549Z,83296
2018-04-19T13:26:17.937Z,78464
2018-04-19T13:36:32.356Z,76288
2018-04-19T13:46:48.163Z,76160
2018-04-19T13:57:03.097Z,73216
2018-04-19T14:07:18.098Z,66112
2018-04-19T14:17:33.534Z,64672
2018-04-19T14:27:48.761Z,59008
2018-04-19T14:38:03.211Z,61088
2018-04-19T14:48:17.683Z,61664
2018-04-19T14:58:33.498Z,55328
2018-04-19T15:08:48.395Z,47552
2018-04-19T15:19:03.610Z,41312
2018-04-19T15:29:19.384Z,25376
2018-04-19T15:39:33.309Z,23072
2018-04-19T15:49:48.834Z,19040
2018-04-19T16:00:04.175Z,20992
2018-04-19T16:10:19.495Z,20512
2018-04-19T16:20:34.103Z,15276
2018-04-19T16:30:48.268Z,13280
2018-04-19T16:41:03.957Z,22656
2018-04-19T16:51:19.225Z,21344
2018-04-19T17:01:34.600Z,18816
2018-04-19T17:11:48.964Z,21440
2018-04-19T17:22:02.873Z,17312
2018-04-19T17:32:16.842Z,14432
2018-04-19T17:42:31.716Z,8228
2018-04-19T17:52:46.601Z,4724
2018-04-19T18:03:01.928Z,3600
2018-04-19T18:13:17.592Z,2372
2018-04-19T18:23:33.248Z,1344
2018-04-19T18:33:48.066Z,608
2018-04-19T18:44:03.792Z,180
2018-04-19T18:54:18.554Z,40
2018-04-19T19:04:32.578Z,8
2018-04-19T19:14:47.380Z,0
2018-04-19T19:25:01.702Z,0
2018-04-19T19:35:16.932Z,0
2018-04-19T19:45:31.491Z,0
2018-04-19T19:55:45.881Z,0
2018-04-19T20:06:01.666Z,0
2018-04-19T20:16:16.609Z,0
2018-04-19T20:26:30.533Z,0
2018-04-19T20:36:45.365Z,0
2018-04-19T20:47:00.689Z,0
2018-04-19T20:57:15.491Z,0
2018-04-19T21:07:31.006Z,0
2018-04-19T21:28:00.738Z,0
2018-04-19T21:38:16.271Z,0
2018-04-19T21:48:30.630Z,0
2018-04-19T21:58:44.908Z,0
2018-04-19T22:09:00.808Z,0
2018-04-19T22:19:13.857Z,0
2018-04-19T22:29:29.246Z,0
2018-04-19T22:39:44.017Z,0
2018-04-19T22:49:59.272Z,0
2018-04-19T23:00:14.308Z,0
2018-04-19T23:10:28.117Z,0
2018-04-19T23:20:42.310Z,0
2018-04-19T23:30:57.463Z,0
2018-04-19T23:41:11.415Z,0
2018-04-19T23:51:25.445Z,0
